sensor_id;sensor_type;location;lat;lon;timestamp;temperature;humidity
40085;DHT22;25786;51.504;7.344;2023-10-19T00:01:47;12.50;90.40
40085;DHT22;25786;51.504;7.344;2023-10-19T00:04:13;12.50;90.30
40085;DHT22;25786;51.504;7.344;2023-10-19T00:06:38;12.50;90.20
40085;DHT22;25786;51.504;7.344;2023-10-19T00:09:05;12.60;90.10
40085;DHT22;25786;51.504;7.344;2023-10-19T00:11:36;12.60;90.20
40085;DHT22;25786;51.504;7.344;2023-10-19T00:14:03;12.60;90.10
40085;DHT22;25786;51.504;7.344;2023-10-19T00:16:28;12.70;89.60
40085;DHT22;25786;51.504;7.344;2023-10-19T00:19:01;12.60;89.70
40085;DHT22;25786;51.504;7.344;2023-10-19T00:21:28;12.80;89.90
40085;DHT22;25786;51.504;7.344;2023-10-19T00:23:55;12.70;89.80
40085;DHT22;25786;51.504;7.344;2023-10-19T00:26:30;12.60;89.90
40085;DHT22;25786;51.504;7.344;2023-10-19T00:28:56;12.80;89.90
40085;DHT22;25786;51.504;7.344;2023-10-19T00:31:22;12.80;90.00
40085;DHT22;25786;51.504;7.344;2023-10-19T00:33:47;12.80;90.10
40085;DHT22;25786;51.504;7.344;2023-10-19T00:36:16;12.80;90.00
40085;DHT22;25786;51.504;7.344;2023-10-19T00:38:45;13.00;90.20
40085;DHT22;25786;51.504;7.344;2023-10-19T00:41:14;13.10;89.80
40085;DHT22;25786;51.504;7.344;2023-10-19T00:43:45;13.10;89.40
40085;DHT22;25786;51.504;7.344;2023-10-19T00:46:17;13.10;89.60
40085;DHT22;25786;51.504;7.344;2023-10-19T00:49:03;13.10;89.70
40085;DHT22;25786;51.504;7.344;2023-10-19T00:51:33;13.10;89.70
40085;DHT22;25786;51.504;7.344;2023-10-19T00:56:36;13.20;89.50
40085;DHT22;25786;51.504;7.344;2023-10-19T00:59:01;13.30;89.20
40085;DHT22;25786;51.504;7.344;2023-10-19T01:02:02;13.30;89.00
40085;DHT22;25786;51.504;7.344;2023-10-19T01:04:47;13.30;89.20
40085;DHT22;25786;51.504;7.344;2023-10-19T01:07:21;13.30;89.10
40085;DHT22;25786;51.504;7.344;2023-10-19T01:09:48;13.30;89.50
40085;DHT22;25786;51.504;7.344;2023-10-19T01:12:17;13.40;89.50
40085;DHT22;25786;51.504;7.344;2023-10-19T01:15:05;13.40;89.60
40085;DHT22;25786;51.504;7.344;2023-10-19T01:17:36;13.40;89.50
40085;DHT22;25786;51.504;7.344;2023-10-19T01:20:08;13.50;89.30
40085;DHT22;25786;51.504;7.344;2023-10-19T01:28:06;13.60;89.70
40085;DHT22;25786;51.504;7.344;2023-10-19T01:30:32;13.40;89.70
40085;DHT22;25786;51.504;7.344;2023-10-19T01:32:58;13.40;90.00
40085;DHT22;25786;51.504;7.344;2023-10-19T01:35:24;13.40;90.30
40085;DHT22;25786;51.504;7.344;2023-10-19T01:37:50;13.50;90.40
40085;DHT22;25786;51.504;7.344;2023-10-19T01:40:15;13.40;90.30
40085;DHT22;25786;51.504;7.344;2023-10-19T01:42:45;13.50;90.30
40085;DHT22;25786;51.504;7.344;2023-10-19T01:45:11;13.60;90.00
40085;DHT22;25786;51.504;7.344;2023-10-19T01:47:37;13.60;90.00
40085;DHT22;25786;51.504;7.344;2023-10-19T01:50:02;13.60;90.00
40085;DHT22;25786;51.504;7.344;2023-10-19T01:52:30;13.60;90.10
40085;DHT22;25786;51.504;7.344;2023-10-19T01:54:56;13.60;90.30
40085;DHT22;25786;51.504;7.344;2023-10-19T01:57:32;13.80;90.00
40085;DHT22;25786;51.504;7.344;2023-10-19T02:00:00;13.80;89.90
40085;DHT22;25786;51.504;7.344;2023-10-19T02:02:34;13.70;90.20
40085;DHT22;25786;51.504;7.344;2023-10-19T02:05:00;13.70;89.90
40085;DHT22;25786;51.504;7.344;2023-10-19T02:07:29;13.70;90.10
40085;DHT22;25786;51.504;7.344;2023-10-19T02:09:55;13.60;90.30
40085;DHT22;25786;51.504;7.344;2023-10-19T02:12:20;13.70;90.20
40085;DHT22;25786;51.504;7.344;2023-10-19T02:14:47;13.80;90.20
40085;DHT22;25786;51.504;7.344;2023-10-19T02:17:12;13.80;90.00
40085;DHT22;25786;51.504;7.344;2023-10-19T02:19:40;13.80;90.10
40085;DHT22;25786;51.504;7.344;2023-10-19T02:22:05;13.80;90.10
40085;DHT22;25786;51.504;7.344;2023-10-19T02:24:36;13.70;90.30
40085;DHT22;25786;51.504;7.344;2023-10-19T02:27:02;13.80;90.20
40085;DHT22;25786;51.504;7.344;2023-10-19T02:29:28;13.90;90.10
40085;DHT22;25786;51.504;7.344;2023-10-19T02:31:53;13.90;89.70
40085;DHT22;25786;51.504;7.344;2023-10-19T02:34:20;13.80;89.90
40085;DHT22;25786;51.504;7.344;2023-10-19T02:36:48;13.80;90.30
40085;DHT22;25786;51.504;7.344;2023-10-19T02:39:13;13.70;90.40
40085;DHT22;25786;51.504;7.344;2023-10-19T02:41:43;13.70;90.50
40085;DHT22;25786;51.504;7.344;2023-10-19T02:44:10;13.80;90.50
40085;DHT22;25786;51.504;7.344;2023-10-19T02:46:41;13.80;90.30
40085;DHT22;25786;51.504;7.344;2023-10-19T02:49:08;13.80;90.20
40085;DHT22;25786;51.504;7.344;2023-10-19T02:51:43;13.70;90.40
40085;DHT22;25786;51.504;7.344;2023-10-19T02:54:10;13.80;90.40
40085;DHT22;25786;51.504;7.344;2023-10-19T02:56:41;13.70;90.40
40085;DHT22;25786;51.504;7.344;2023-10-19T02:59:09;13.80;90.60
40085;DHT22;25786;51.504;7.344;2023-10-19T03:01:34;13.70;90.50
40085;DHT22;25786;51.504;7.344;2023-10-19T03:04:00;13.70;90.60
40085;DHT22;25786;51.504;7.344;2023-10-19T03:06:29;13.70;90.80
40085;DHT22;25786;51.504;7.344;2023-10-19T03:08:57;13.70;90.80
40085;DHT22;25786;51.504;7.344;2023-10-19T03:11:23;13.60;91.00
40085;DHT22;25786;51.504;7.344;2023-10-19T03:13:50;13.70;90.80
40085;DHT22;25786;51.504;7.344;2023-10-19T03:16:15;13.80;90.90
40085;DHT22;25786;51.504;7.344;2023-10-19T03:18:41;13.80;90.40
40085;DHT22;25786;51.504;7.344;2023-10-19T03:21:06;13.80;90.70
40085;DHT22;25786;51.504;7.344;2023-10-19T03:23:32;13.70;90.70
40085;DHT22;25786;51.504;7.344;2023-10-19T03:25:59;13.70;90.90
40085;DHT22;25786;51.504;7.344;2023-10-19T03:28:48;13.70;90.90
40085;DHT22;25786;51.504;7.344;2023-10-19T03:31:14;13.70;91.10
40085;DHT22;25786;51.504;7.344;2023-10-19T03:33:44;13.70;91.00
40085;DHT22;25786;51.504;7.344;2023-10-19T03:36:09;13.70;91.20
40085;DHT22;25786;51.504;7.344;2023-10-19T03:38:39;13.70;91.20
40085;DHT22;25786;51.504;7.344;2023-10-19T03:41:06;13.70;91.20
40085;DHT22;25786;51.504;7.344;2023-10-19T03:43:33;13.70;91.20
40085;DHT22;25786;51.504;7.344;2023-10-19T03:45:58;13.60;91.10
40085;DHT22;25786;51.504;7.344;2023-10-19T03:48:24;13.70;91.20
40085;DHT22;25786;51.504;7.344;2023-10-19T03:50:55;13.70;91.20
40085;DHT22;25786;51.504;7.344;2023-10-19T03:53:22;13.70;91.40
40085;DHT22;25786;51.504;7.344;2023-10-19T03:55:48;13.60;91.40
40085;DHT22;25786;51.504;7.344;2023-10-19T03:58:15;13.60;91.50
40085;DHT22;25786;51.504;7.344;2023-10-19T04:00:41;13.60;91.50
40085;DHT22;25786;51.504;7.344;2023-10-19T04:03:07;13.60;91.70
40085;DHT22;25786;51.504;7.344;2023-10-19T04:05:32;13.60;91.70
40085;DHT22;25786;51.504;7.344;2023-10-19T04:08:04;13.60;91.60
40085;DHT22;25786;51.504;7.344;2023-10-19T04:10:38;13.60;91.70
40085;DHT22;25786;51.504;7.344;2023-10-19T04:13:04;13.60;91.70
40085;DHT22;25786;51.504;7.344;2023-10-19T04:15:30;13.60;91.70
40085;DHT22;25786;51.504;7.344;2023-10-19T04:17:59;13.60;91.80
40085;DHT22;25786;51.504;7.344;2023-10-19T04:20:25;13.60;91.80
40085;DHT22;25786;51.504;7.344;2023-10-19T04:22:51;13.60;91.90
40085;DHT22;25786;51.504;7.344;2023-10-19T04:25:17;13.60;91.80
40085;DHT22;25786;51.504;7.344;2023-10-19T04:27:46;13.60;91.90
40085;DHT22;25786;51.504;7.344;2023-10-19T04:30:13;13.60;91.90
40085;DHT22;25786;51.504;7.344;2023-10-19T04:32:41;13.60;91.90
40085;DHT22;25786;51.504;7.344;2023-10-19T04:35:07;13.60;91.90
40085;DHT22;25786;51.504;7.344;2023-10-19T04:37:34;13.60;91.90
40085;DHT22;25786;51.504;7.344;2023-10-19T04:40:00;13.70;92.00
40085;DHT22;25786;51.504;7.344;2023-10-19T04:42:26;13.60;91.90
40085;DHT22;25786;51.504;7.344;2023-10-19T04:44:54;13.60;91.90
40085;DHT22;25786;51.504;7.344;2023-10-19T04:47:19;13.60;92.00
40085;DHT22;25786;51.504;7.344;2023-10-19T04:49:44;13.60;91.90
40085;DHT22;25786;51.504;7.344;2023-10-19T04:52:10;13.60;91.90
40085;DHT22;25786;51.504;7.344;2023-10-19T04:54:35;13.60;91.90
40085;DHT22;25786;51.504;7.344;2023-10-19T04:57:02;13.50;92.00
40085;DHT22;25786;51.504;7.344;2023-10-19T04:59:28;13.50;92.00
40085;DHT22;25786;51.504;7.344;2023-10-19T05:01:58;13.60;92.10
40085;DHT22;25786;51.504;7.344;2023-10-19T05:04:23;13.60;92.10
40085;DHT22;25786;51.504;7.344;2023-10-19T05:06:49;13.60;92.10
40085;DHT22;25786;51.504;7.344;2023-10-19T05:09:14;13.60;92.20
40085;DHT22;25786;51.504;7.344;2023-10-19T05:11:40;13.60;92.20
40085;DHT22;25786;51.504;7.344;2023-10-19T05:14:06;13.60;92.10
40085;DHT22;25786;51.504;7.344;2023-10-19T05:16:32;13.60;92.10
40085;DHT22;25786;51.504;7.344;2023-10-19T05:18:57;13.60;92.00
40085;DHT22;25786;51.504;7.344;2023-10-19T05:21:22;13.70;91.90
40085;DHT22;25786;51.504;7.344;2023-10-19T05:23:48;13.70;91.90
40085;DHT22;25786;51.504;7.344;2023-10-19T05:26:13;13.60;92.00
40085;DHT22;25786;51.504;7.344;2023-10-19T05:28:40;13.60;92.00
40085;DHT22;25786;51.504;7.344;2023-10-19T05:31:08;13.60;92.00
40085;DHT22;25786;51.504;7.344;2023-10-19T05:33:33;13.60;92.00
40085;DHT22;25786;51.504;7.344;2023-10-19T05:35:59;13.60;92.00
40085;DHT22;25786;51.504;7.344;2023-10-19T05:38:26;13.60;91.90
40085;DHT22;25786;51.504;7.344;2023-10-19T05:40:52;13.70;92.00
40085;DHT22;25786;51.504;7.344;2023-10-19T05:43:18;13.70;92.00
40085;DHT22;25786;51.504;7.344;2023-10-19T05:45:43;13.70;91.90
40085;DHT22;25786;51.504;7.344;2023-10-19T05:48:09;13.80;91.80
40085;DHT22;25786;51.504;7.344;2023-10-19T05:50:36;13.60;91.60
40085;DHT22;25786;51.504;7.344;2023-10-19T05:53:02;13.60;91.70
40085;DHT22;25786;51.504;7.344;2023-10-19T05:55:28;13.60;91.70
40085;DHT22;25786;51.504;7.344;2023-10-19T05:57:54;13.60;91.80
40085;DHT22;25786;51.504;7.344;2023-10-19T06:00:19;13.60;91.80
40085;DHT22;25786;51.504;7.344;2023-10-19T06:02:47;13.50;91.90
40085;DHT22;25786;51.504;7.344;2023-10-19T06:05:14;13.50;91.90
40085;DHT22;25786;51.504;7.344;2023-10-19T06:07:41;13.60;91.90
40085;DHT22;25786;51.504;7.344;2023-10-19T06:10:06;13.50;91.80
40085;DHT22;25786;51.504;7.344;2023-10-19T06:12:32;13.50;91.80
40085;DHT22;25786;51.504;7.344;2023-10-19T06:14:58;13.50;91.90
40085;DHT22;25786;51.504;7.344;2023-10-19T06:17:26;13.50;91.90
40085;DHT22;25786;51.504;7.344;2023-10-19T06:19:52;13.50;92.00
40085;DHT22;25786;51.504;7.344;2023-10-19T06:22:17;13.60;91.90
40085;DHT22;25786;51.504;7.344;2023-10-19T06:24:43;13.50;91.90
40085;DHT22;25786;51.504;7.344;2023-10-19T06:27:09;13.60;92.00
40085;DHT22;25786;51.504;7.344;2023-10-19T06:29:35;13.60;91.90
40085;DHT22;25786;51.504;7.344;2023-10-19T06:32:00;13.60;91.90
40085;DHT22;25786;51.504;7.344;2023-10-19T06:34:26;13.60;91.90
40085;DHT22;25786;51.504;7.344;2023-10-19T06:36:52;13.60;91.80
40085;DHT22;25786;51.504;7.344;2023-10-19T06:39:19;13.70;91.70
40085;DHT22;25786;51.504;7.344;2023-10-19T06:41:46;13.60;91.70
40085;DHT22;25786;51.504;7.344;2023-10-19T06:44:12;13.70;91.70
40085;DHT22;25786;51.504;7.344;2023-10-19T06:46:38;13.70;91.70
40085;DHT22;25786;51.504;7.344;2023-10-19T06:49:04;13.80;91.60
40085;DHT22;25786;51.504;7.344;2023-10-19T06:51:30;13.70;91.60
40085;DHT22;25786;51.504;7.344;2023-10-19T06:53:55;13.80;91.60
40085;DHT22;25786;51.504;7.344;2023-10-19T06:56:21;13.70;91.70
40085;DHT22;25786;51.504;7.344;2023-10-19T06:58:46;13.80;91.60
40085;DHT22;25786;51.504;7.344;2023-10-19T07:01:12;13.80;91.50
40085;DHT22;25786;51.504;7.344;2023-10-19T07:03:41;13.80;91.40
40085;DHT22;25786;51.504;7.344;2023-10-19T07:06:07;13.80;91.40
40085;DHT22;25786;51.504;7.344;2023-10-19T07:08:33;13.80;91.50
40085;DHT22;25786;51.504;7.344;2023-10-19T07:10:58;13.90;91.60
40085;DHT22;25786;51.504;7.344;2023-10-19T07:13:25;14.00;91.10
40085;DHT22;25786;51.504;7.344;2023-10-19T07:15:51;14.00;91.20
40085;DHT22;25786;51.504;7.344;2023-10-19T07:18:16;13.90;91.20
40085;DHT22;25786;51.504;7.344;2023-10-19T07:20:42;14.00;91.30
40085;DHT22;25786;51.504;7.344;2023-10-19T07:23:08;14.00;91.40
40085;DHT22;25786;51.504;7.344;2023-10-19T07:25:47;14.00;91.40
40085;DHT22;25786;51.504;7.344;2023-10-19T07:28:14;14.00;91.40
40085;DHT22;25786;51.504;7.344;2023-10-19T07:30:40;14.00;91.40
40085;DHT22;25786;51.504;7.344;2023-10-19T07:33:07;14.10;91.40
40085;DHT22;25786;51.504;7.344;2023-10-19T07:35:36;14.10;91.40
40085;DHT22;25786;51.504;7.344;2023-10-19T07:38:04;14.10;91.50
40085;DHT22;25786;51.504;7.344;2023-10-19T07:40:32;14.10;91.30
40085;DHT22;25786;51.504;7.344;2023-10-19T07:42:58;14.10;91.30
40085;DHT22;25786;51.504;7.344;2023-10-19T07:45:23;14.20;91.30
40085;DHT22;25786;51.504;7.344;2023-10-19T07:47:50;14.10;91.30
40085;DHT22;25786;51.504;7.344;2023-10-19T07:50:16;14.20;91.30
40085;DHT22;25786;51.504;7.344;2023-10-19T07:52:42;14.20;91.20
40085;DHT22;25786;51.504;7.344;2023-10-19T07:55:09;14.20;91.20
40085;DHT22;25786;51.504;7.344;2023-10-19T07:57:35;14.20;91.30
40085;DHT22;25786;51.504;7.344;2023-10-19T08:00:01;14.30;91.30
40085;DHT22;25786;51.504;7.344;2023-10-19T08:02:26;14.30;91.30
40085;DHT22;25786;51.504;7.344;2023-10-19T08:04:52;14.30;91.20
40085;DHT22;25786;51.504;7.344;2023-10-19T08:07:17;14.30;91.20
40085;DHT22;25786;51.504;7.344;2023-10-19T08:09:43;14.20;91.30
40085;DHT22;25786;51.504;7.344;2023-10-19T08:12:09;14.20;91.20
40085;DHT22;25786;51.504;7.344;2023-10-19T08:14:34;14.20;91.30
40085;DHT22;25786;51.504;7.344;2023-10-19T08:17:00;14.30;91.30
40085;DHT22;25786;51.504;7.344;2023-10-19T08:19:27;14.30;91.30
40085;DHT22;25786;51.504;7.344;2023-10-19T08:21:53;14.50;91.20
40085;DHT22;25786;51.504;7.344;2023-10-19T08:24:18;14.50;91.10
40085;DHT22;25786;51.504;7.344;2023-10-19T08:26:44;14.60;91.00
40085;DHT22;25786;51.504;7.344;2023-10-19T08:29:13;14.60;91.00
40085;DHT22;25786;51.504;7.344;2023-10-19T08:31:39;14.70;91.00
40085;DHT22;25786;51.504;7.344;2023-10-19T08:34:05;14.80;90.90
40085;DHT22;25786;51.504;7.344;2023-10-19T08:36:31;14.80;90.80
40085;DHT22;25786;51.504;7.344;2023-10-19T08:38:56;14.80;90.90
40085;DHT22;25786;51.504;7.344;2023-10-19T08:41:22;14.90;90.70
40085;DHT22;25786;51.504;7.344;2023-10-19T08:43:48;15.00;90.50
40085;DHT22;25786;51.504;7.344;2023-10-19T08:46:15;15.00;90.30
40085;DHT22;25786;51.504;7.344;2023-10-19T08:48:41;15.00;90.50
40085;DHT22;25786;51.504;7.344;2023-10-19T08:51:10;15.00;90.40
40085;DHT22;25786;51.504;7.344;2023-10-19T08:53:38;15.10;90.40
40085;DHT22;25786;51.504;7.344;2023-10-19T08:56:09;15.20;90.40
40085;DHT22;25786;51.504;7.344;2023-10-19T08:58:35;15.30;89.90
40085;DHT22;25786;51.504;7.344;2023-10-19T09:01:01;15.40;90.00
40085;DHT22;25786;51.504;7.344;2023-10-19T09:03:32;15.40;89.90
40085;DHT22;25786;51.504;7.344;2023-10-19T09:06:00;15.50;89.90
40085;DHT22;25786;51.504;7.344;2023-10-19T09:08:26;15.40;89.60
40085;DHT22;25786;51.504;7.344;2023-10-19T09:11:07;15.50;89.80
40085;DHT22;25786;51.504;7.344;2023-10-19T09:13:43;15.40;89.80
40085;DHT22;25786;51.504;7.344;2023-10-19T09:16:12;15.50;89.90
40085;DHT22;25786;51.504;7.344;2023-10-19T09:18:39;15.70;89.90
40085;DHT22;25786;51.504;7.344;2023-10-19T09:21:06;15.80;89.70
40085;DHT22;25786;51.504;7.344;2023-10-19T09:23:37;16.00;89.30
40085;DHT22;25786;51.504;7.344;2023-10-19T09:26:02;16.00;89.20
40085;DHT22;25786;51.504;7.344;2023-10-19T09:28:28;16.00;89.00
40085;DHT22;25786;51.504;7.344;2023-10-19T09:30:54;16.00;88.80
40085;DHT22;25786;51.504;7.344;2023-10-19T09:33:20;16.00;88.80
40085;DHT22;25786;51.504;7.344;2023-10-19T09:35:47;16.10;88.90
40085;DHT22;25786;51.504;7.344;2023-10-19T09:38:16;16.00;88.70
40085;DHT22;25786;51.504;7.344;2023-10-19T09:40:50;16.00;88.90
40085;DHT22;25786;51.504;7.344;2023-10-19T09:43:16;16.10;88.90
40085;DHT22;25786;51.504;7.344;2023-10-19T09:45:48;16.00;88.70
40085;DHT22;25786;51.504;7.344;2023-10-19T09:48:16;16.00;88.80
40085;DHT22;25786;51.504;7.344;2023-10-19T09:50:44;16.10;89.10
40085;DHT22;25786;51.504;7.344;2023-10-19T09:53:10;16.20;89.00
40085;DHT22;25786;51.504;7.344;2023-10-19T09:55:37;16.30;88.80
40085;DHT22;25786;51.504;7.344;2023-10-19T09:58:06;16.50;88.30
40085;DHT22;25786;51.504;7.344;2023-10-19T10:00:33;16.80;87.50
40085;DHT22;25786;51.504;7.344;2023-10-19T10:02:59;16.80;87.70
40085;DHT22;25786;51.504;7.344;2023-10-19T10:10:45;17.00;87.50
40085;DHT22;25786;51.504;7.344;2023-10-19T10:15:54;17.10;86.90
40085;DHT22;25786;51.504;7.344;2023-10-19T10:18:20;17.20;86.60
40085;DHT22;25786;51.504;7.344;2023-10-19T10:20:45;17.30;86.10
40085;DHT22;25786;51.504;7.344;2023-10-19T10:23:16;17.10;86.50
40085;DHT22;25786;51.504;7.344;2023-10-19T10:25:42;17.10;86.10
40085;DHT22;25786;51.504;7.344;2023-10-19T10:28:14;16.90;85.90
40085;DHT22;25786;51.504;7.344;2023-10-19T10:36:06;17.10;86.60
40085;DHT22;25786;51.504;7.344;2023-10-19T10:38:34;17.10;86.70
40085;DHT22;25786;51.504;7.344;2023-10-19T10:41:03;17.20;86.10
40085;DHT22;25786;51.504;7.344;2023-10-19T10:43:29;17.20;86.30
40085;DHT22;25786;51.504;7.344;2023-10-19T10:46:04;17.30;86.10
40085;DHT22;25786;51.504;7.344;2023-10-19T10:48:30;17.30;85.90
40085;DHT22;25786;51.504;7.344;2023-10-19T10:50:55;17.30;86.10
40085;DHT22;25786;51.504;7.344;2023-10-19T10:53:22;17.50;86.10
40085;DHT22;25786;51.504;7.344;2023-10-19T10:55:48;17.40;85.90
40085;DHT22;25786;51.504;7.344;2023-10-19T10:58:17;17.40;85.70
40085;DHT22;25786;51.504;7.344;2023-10-19T11:00:43;17.50;85.90
40085;DHT22;25786;51.504;7.344;2023-10-19T11:03:09;17.60;85.50
40085;DHT22;25786;51.504;7.344;2023-10-19T11:05:35;17.60;84.30
40085;DHT22;25786;51.504;7.344;2023-10-19T11:10:29;17.60;84.50
40085;DHT22;25786;51.504;7.344;2023-10-19T11:13:02;17.60;83.00
40085;DHT22;25786;51.504;7.344;2023-10-19T11:15:27;17.60;83.40
40085;DHT22;25786;51.504;7.344;2023-10-19T11:17:53;17.50;83.30
40085;DHT22;25786;51.504;7.344;2023-10-19T11:20:22;17.60;83.70
40085;DHT22;25786;51.504;7.344;2023-10-19T11:22:48;17.60;83.30
40085;DHT22;25786;51.504;7.344;2023-10-19T11:25:22;17.60;83.00
40085;DHT22;25786;51.504;7.344;2023-10-19T11:27:48;17.60;83.40
40085;DHT22;25786;51.504;7.344;2023-10-19T11:30:22;17.60;83.90
40085;DHT22;25786;51.504;7.344;2023-10-19T11:32:47;17.60;83.90
40085;DHT22;25786;51.504;7.344;2023-10-19T11:35:13;17.60;83.80
40085;DHT22;25786;51.504;7.344;2023-10-19T11:37:48;17.60;81.90
40085;DHT22;25786;51.504;7.344;2023-10-19T11:40:14;17.70;80.90
40085;DHT22;25786;51.504;7.344;2023-10-19T11:42:39;17.80;81.00
40085;DHT22;25786;51.504;7.344;2023-10-19T11:45:05;17.90;79.50
40085;DHT22;25786;51.504;7.344;2023-10-19T11:47:31;17.80;80.80
40085;DHT22;25786;51.504;7.344;2023-10-19T11:49:57;17.90;81.40
40085;DHT22;25786;51.504;7.344;2023-10-19T11:52:22;17.80;82.20
40085;DHT22;25786;51.504;7.344;2023-10-19T11:54:48;17.90;82.60
40085;DHT22;25786;51.504;7.344;2023-10-19T11:57:14;17.80;82.10
40085;DHT22;25786;51.504;7.344;2023-10-19T11:59:39;17.90;82.00
40085;DHT22;25786;51.504;7.344;2023-10-19T12:02:06;17.90;81.50
40085;DHT22;25786;51.504;7.344;2023-10-19T12:04:32;18.00;79.70
40085;DHT22;25786;51.504;7.344;2023-10-19T12:07:01;18.00;79.80
40085;DHT22;25786;51.504;7.344;2023-10-19T12:09:27;18.10;80.60
40085;DHT22;25786;51.504;7.344;2023-10-19T12:11:53;18.10;80.70
40085;DHT22;25786;51.504;7.344;2023-10-19T12:14:19;18.10;79.60
40085;DHT22;25786;51.504;7.344;2023-10-19T12:16:46;18.00;80.20
40085;DHT22;25786;51.504;7.344;2023-10-19T12:19:12;18.00;80.70
40085;DHT22;25786;51.504;7.344;2023-10-19T12:21:39;17.90;80.80
40085;DHT22;25786;51.504;7.344;2023-10-19T12:24:06;17.90;80.60
40085;DHT22;25786;51.504;7.344;2023-10-19T12:26:33;17.80;80.80
40085;DHT22;25786;51.504;7.344;2023-10-19T12:28:58;17.80;81.50
40085;DHT22;25786;51.504;7.344;2023-10-19T12:31:24;17.80;82.00
40085;DHT22;25786;51.504;7.344;2023-10-19T12:33:50;17.80;81.60
40085;DHT22;25786;51.504;7.344;2023-10-19T12:36:16;17.70;81.90
40085;DHT22;25786;51.504;7.344;2023-10-19T12:38:53;17.80;81.70
40085;DHT22;25786;51.504;7.344;2023-10-19T12:41:22;17.80;81.00
40085;DHT22;25786;51.504;7.344;2023-10-19T12:43:47;17.90;81.00
40085;DHT22;25786;51.504;7.344;2023-10-19T12:46:13;17.80;81.10
40085;DHT22;25786;51.504;7.344;2023-10-19T12:48:39;18.00;79.20
40085;DHT22;25786;51.504;7.344;2023-10-19T12:51:05;18.10;79.30
40085;DHT22;25786;51.504;7.344;2023-10-19T12:53:37;18.00;80.50
40085;DHT22;25786;51.504;7.344;2023-10-19T12:56:04;18.10;79.90
40085;DHT22;25786;51.504;7.344;2023-10-19T12:58:30;18.10;79.70
40085;DHT22;25786;51.504;7.344;2023-10-19T13:00:57;18.20;79.40
40085;DHT22;25786;51.504;7.344;2023-10-19T13:03:24;18.10;80.20
40085;DHT22;25786;51.504;7.344;2023-10-19T13:05:52;18.10;79.80
40085;DHT22;25786;51.504;7.344;2023-10-19T13:08:18;17.90;80.50
40085;DHT22;25786;51.504;7.344;2023-10-19T13:10:45;17.80;81.50
40085;DHT22;25786;51.504;7.344;2023-10-19T13:13:11;17.70;81.80
40085;DHT22;25786;51.504;7.344;2023-10-19T13:15:37;17.60;82.20
40085;DHT22;25786;51.504;7.344;2023-10-19T13:18:03;17.60;82.20
40085;DHT22;25786;51.504;7.344;2023-10-19T13:20:31;17.50;82.80
40085;DHT22;25786;51.504;7.344;2023-10-19T13:23:00;17.60;82.50
40085;DHT22;25786;51.504;7.344;2023-10-19T13:25:26;17.50;82.80
40085;DHT22;25786;51.504;7.344;2023-10-19T13:28:10;17.50;83.20
40085;DHT22;25786;51.504;7.344;2023-10-19T13:30:37;17.40;83.80
40085;DHT22;25786;51.504;7.344;2023-10-19T13:33:05;17.40;83.90
40085;DHT22;25786;51.504;7.344;2023-10-19T13:35:30;17.50;84.00
40085;DHT22;25786;51.504;7.344;2023-10-19T13:37:56;17.50;83.60
40085;DHT22;25786;51.504;7.344;2023-10-19T13:40:21;17.40;83.90
40085;DHT22;25786;51.504;7.344;2023-10-19T13:42:48;17.50;83.10
40085;DHT22;25786;51.504;7.344;2023-10-19T13:45:14;17.40;83.20
40085;DHT22;25786;51.504;7.344;2023-10-19T13:47:40;17.40;83.50
40085;DHT22;25786;51.504;7.344;2023-10-19T13:50:05;17.30;83.40
40085;DHT22;25786;51.504;7.344;2023-10-19T13:52:32;17.40;83.20
40085;DHT22;25786;51.504;7.344;2023-10-19T13:54:58;17.40;83.40
40085;DHT22;25786;51.504;7.344;2023-10-19T13:57:23;17.40;83.60
40085;DHT22;25786;51.504;7.344;2023-10-19T13:59:49;17.40;83.50
40085;DHT22;25786;51.504;7.344;2023-10-19T14:02:14;17.30;83.90
40085;DHT22;25786;51.504;7.344;2023-10-19T14:04:40;17.30;84.30
40085;DHT22;25786;51.504;7.344;2023-10-19T14:07:05;17.40;84.40
40085;DHT22;25786;51.504;7.344;2023-10-19T14:09:30;17.30;84.60
40085;DHT22;25786;51.504;7.344;2023-10-19T14:11:57;17.20;85.00
40085;DHT22;25786;51.504;7.344;2023-10-19T14:14:22;17.20;85.30
40085;DHT22;25786;51.504;7.344;2023-10-19T14:16:48;17.20;85.60
40085;DHT22;25786;51.504;7.344;2023-10-19T14:19:16;17.10;85.60
40085;DHT22;25786;51.504;7.344;2023-10-19T14:21:42;17.10;86.00
40085;DHT22;25786;51.504;7.344;2023-10-19T14:24:10;17.10;86.40
40085;DHT22;25786;51.504;7.344;2023-10-19T14:26:35;17.10;86.40
40085;DHT22;25786;51.504;7.344;2023-10-19T14:29:00;17.00;86.80
40085;DHT22;25786;51.504;7.344;2023-10-19T14:31:26;17.10;86.90
40085;DHT22;25786;51.504;7.344;2023-10-19T14:33:52;17.10;86.70
40085;DHT22;25786;51.504;7.344;2023-10-19T14:36:17;17.10;86.90
40085;DHT22;25786;51.504;7.344;2023-10-19T14:38:44;17.10;87.00
40085;DHT22;25786;51.504;7.344;2023-10-19T14:41:11;17.20;87.30
40085;DHT22;25786;51.504;7.344;2023-10-19T14:43:37;17.20;87.10
40085;DHT22;25786;51.504;7.344;2023-10-19T14:46:04;17.20;87.10
40085;DHT22;25786;51.504;7.344;2023-10-19T14:48:31;17.20;87.20
40085;DHT22;25786;51.504;7.344;2023-10-19T14:50:57;17.10;87.30
40085;DHT22;25786;51.504;7.344;2023-10-19T14:53:23;17.10;87.40
40085;DHT22;25786;51.504;7.344;2023-10-19T14:55:49;17.20;87.60
40085;DHT22;25786;51.504;7.344;2023-10-19T14:58:15;17.10;87.20
40085;DHT22;25786;51.504;7.344;2023-10-19T15:00:41;17.00;87.60
40085;DHT22;25786;51.504;7.344;2023-10-19T15:03:20;17.00;88.10
40085;DHT22;25786;51.504;7.344;2023-10-19T15:05:49;17.00;88.20
40085;DHT22;25786;51.504;7.344;2023-10-19T15:08:14;16.90;88.40
40085;DHT22;25786;51.504;7.344;2023-10-19T15:10:40;16.90;88.50
40085;DHT22;25786;51.504;7.344;2023-10-19T15:13:07;16.90;88.70
40085;DHT22;25786;51.504;7.344;2023-10-19T15:15:32;16.90;88.80
40085;DHT22;25786;51.504;7.344;2023-10-19T15:17:58;16.90;88.90
40085;DHT22;25786;51.504;7.344;2023-10-19T15:20:24;17.00;89.00
40085;DHT22;25786;51.504;7.344;2023-10-19T15:22:50;17.10;88.90
40085;DHT22;25786;51.504;7.344;2023-10-19T15:25:16;17.00;88.80
40085;DHT22;25786;51.504;7.344;2023-10-19T15:27:45;17.00;89.00
40085;DHT22;25786;51.504;7.344;2023-10-19T15:30:11;17.00;89.00
40085;DHT22;25786;51.504;7.344;2023-10-19T15:32:37;17.00;89.10
40085;DHT22;25786;51.504;7.344;2023-10-19T15:35:03;17.00;89.10
40085;DHT22;25786;51.504;7.344;2023-10-19T15:37:29;17.00;89.20
40085;DHT22;25786;51.504;7.344;2023-10-19T15:39:55;16.90;89.10
40085;DHT22;25786;51.504;7.344;2023-10-19T15:42:20;16.90;89.30
40085;DHT22;25786;51.504;7.344;2023-10-19T15:44:49;16.80;89.30
40085;DHT22;25786;51.504;7.344;2023-10-19T15:47:16;16.80;89.30
40085;DHT22;25786;51.504;7.344;2023-10-19T15:49:48;16.70;89.40
40085;DHT22;25786;51.504;7.344;2023-10-19T15:52:17;16.60;89.50
40085;DHT22;25786;51.504;7.344;2023-10-19T15:54:43;16.60;89.70